Murrieta, CA (92563)

4:42 AM PDT on September 17, 2014 (GMT -0700)
Murrieta Neighborhood Weather Watcher | Change Station
CLOSE
Current Station
Personal Weather Station
Location: Murrieta, CA
Elevation: 1280 ft
Nearby Weather Stations

Elev 1280 ft 33.58 °N, 117.20 °W | Updated 1 second ago

Clear
Clear
75.4 °F
Feels Like 77 °F
N
0.0
Wind Variable Wind from North
Gusts 0.0 mph

Today
High -- | Low -- °F
--% Chance of Precip.
Yesterday
High -- | Low -- °F
Precip. -- in
6:33 AM 6:52 PM
Last Quarter, 36% visible
Pressure 29.79 in
Visibility 10.0 miles
Clouds Clear
Heat Index 77 °F
Dew Point 66 °F
Humidity 72%
Rainfall 0.00 in
Snow Depth 0 in , 0 in , 1 in
UV 0.0 out of 12
Pollen 5.10 out of 12
PM2.5 Good
Flu Activity Not available.
METAR KF70 171135Z AUTO 00000KT 10SM CLR 24/19 A2979 RMK AO1

More Conditions Fewer Conditions

Pressure 29.79 in
Visibility 10.0 miles
Clouds Clear
Heat Index 77 °F
Dew Point 66 °F
Humidity 72%
Rainfall 0.00 in
Snow Depth 0 in , 0 in , 1 in
UV 0.0 out of 12
Pollen 5.10 out of 12
PM2.5 Good
Flu Activity Not available.
METAR KF70 171135Z AUTO 00000KT 10SM CLR 24/19 A2979 RMK AO1

More Conditions Fewer Conditions

10-Day Weather Forecast

Almanac

Astronomy

Sep. 17, 2014 Rise Set
Actual Time 6:33 AM PDT 6:52 PM PDT
Civil Twilight 6:08 AM PDT 7:17 PM PDT
Nautical Twilight 5:39 AM PDT 7:46 PM PDT
Astronomical Twilight 5:09 AM PDT 8:15 PM PDT
Moon 12:49 AM PDT 2:53 PM PDT
Length of Visible Light 13h 08m
Length of Day
12h 18m
Tomorrow will be 2m 3s shorter.
Last Quarter, 36% of the Moon is Illuminated
Today
Last Quarter
Sep 24
New
Oct 1
First Quarter
Oct 8
Full
Oct 15
Last Quarter

Today's Extremes

State Highs State Lows

Community

WunderPhotos

Upload Photos

1,754,002 photos uploaded!

Nearby

Air Quality

  Air Quality AQ Index Pollutant
Yesterday Moderate
PM2.5
Current Good
PM2.5
Wednesday Good
PM10
Wednesday Good
OZONE
Wednesday Good
CO
Wednesday Good
NO2

Snow Depth

Station Depth Elevation
Monitor Pass 0 in 8350 ft
Fallen Leaf 0 in 6300 ft
Spratt Creek 1 in 6200 ft
Leavitt Lake 0 in 9400 ft
Forestdale Creek 0 in 8029 ft

Earthquake Activity

City Distance Mag. Time & Date
La Quinta, California 41 miles 2.7 8:59 PM PDT
2014-09-15
San Jacinto, California 19 miles 3.0 3:16 PM PDT
2014-09-14
Minimum magnitude displayed is 2.5.

Coastal Water Temperatures

Place Temperature
La Jolla, CA 71.1 °F
San Diego, CA 75.0 °F

Nearby Weather Stations